GLO2398 SBEG-SBSN
Flight info
| Callsign | GLO2398 |
|---|---|
| Flight time | 0h 54m |
| Altitude | 33000 |
| Route | XOLOK UZ81 TOBUX DCT STM |
| Aircraft | B738/M-SDE2E3FGHIRWXY/LB1 |
Departure
| Time | 2026-05-07 03:51 |
|---|---|
| Airport | Eduardo Gomes International Airport (SBEG) |
Arrival
| Time | 2026-05-07 04:46 |
|---|---|
| Airport | Santarém - Maestro Wilson Fonseca International Airport (SBSN) |
| Time | Latitude | Longitude | Altitude | Speed | Heading |
|---|---|---|---|---|---|
| 2026-05-07 03:35 | -3.03272 | -60.04539 | 267 ft | 0 kts | 353° |
| 2026-05-07 03:44 | -3.03285 | -60.04538 | 267 ft | 2 kts | 353° |
| 2026-05-07 03:45 | -3.03301 | -60.04536 | 267 ft | 2 kts | 353° |
| 2026-05-07 03:45 | -3.03317 | -60.04534 | 267 ft | 2 kts | 2° |
| 2026-05-07 03:45 | -3.03333 | -60.04538 | 267 ft | 2 kts | 34° |
| 2026-05-07 03:45 | -3.03345 | -60.04549 | 267 ft | 2 kts | 57° |
| 2026-05-07 03:46 | -3.03352 | -60.04564 | 267 ft | 2 kts | 72° |
| 2026-05-07 03:46 | -3.03355 | -60.04574 | 267 ft | 1 kts | 80° |
| 2026-05-07 03:46 | -3.03355 | -60.04576 | 267 ft | 0 kts | 82° |
| 2026-05-07 03:48 | -3.03355 | -60.04570 | 267 ft | 3 kts | 84° |
| 2026-05-07 03:48 | -3.03350 | -60.04524 | 267 ft | 10 kts | 84° |
| 2026-05-07 03:48 | -3.03337 | -60.04448 | 267 ft | 12 kts | 77° |
| 2026-05-07 03:48 | -3.03371 | -60.04380 | 267 ft | 13 kts | 163° |
| 2026-05-07 03:49 | -3.03463 | -60.04346 | 267 ft | 15 kts | 151° |
| 2026-05-07 03:49 | -3.03546 | -60.04274 | 267 ft | 17 kts | 130° |
| 2026-05-07 03:49 | -3.03596 | -60.04166 | 267 ft | 18 kts | 107° |
| 2026-05-07 03:49 | -3.03633 | -60.04044 | 267 ft | 19 kts | 107° |
| 2026-05-07 03:50 | -3.03667 | -60.03911 | 267 ft | 20 kts | 104° |
| 2026-05-07 03:50 | -3.03726 | -60.03782 | 268 ft | 21 kts | 146° |
| 2026-05-07 03:50 | -3.03855 | -60.03830 | 267 ft | 27 kts | 252° |
| 2026-05-07 03:50 | -3.03862 | -60.04213 | 268 ft | 87 kts | 270° |
| 2026-05-07 03:51 | -3.03860 | -60.05002 | 267 ft | 142 kts | 270° |
| 2026-05-07 03:51 | -3.03853 | -60.06132 | 420 ft | 174 kts | 271° |
| 2026-05-07 03:51 | -3.03820 | -60.07436 | 712 ft | 203 kts | 272° |
| 2026-05-07 03:51 | -3.03650 | -60.08888 | 1131 ft | 211 kts | 296° |
| 2026-05-07 03:52 | -3.02674 | -60.09875 | 1939 ft | 199 kts | 339° |
| 2026-05-07 03:52 | -3.01291 | -60.10078 | 2458 ft | 213 kts | 10° |
| 2026-05-07 03:52 | -2.99870 | -60.09483 | 2677 ft | 234 kts | 39° |
| 2026-05-07 03:52 | -2.98859 | -60.08138 | 2955 ft | 254 kts | 71° |
| 2026-05-07 03:53 | -2.98545 | -60.06387 | 3627 ft | 258 kts | 84° |
| 2026-05-07 03:53 | -2.98386 | -60.04596 | 4367 ft | 260 kts | 85° |
| 2026-05-07 03:53 | -2.98242 | -60.02791 | 5137 ft | 261 kts | 85° |
| 2026-05-07 03:53 | -2.98094 | -60.00976 | 5851 ft | 263 kts | 85° |
| 2026-05-07 03:54 | -2.97938 | -59.99149 | 6584 ft | 264 kts | 85° |
| 2026-05-07 03:54 | -2.97774 | -59.97309 | 7213 ft | 268 kts | 85° |
| 2026-05-07 03:54 | -2.97602 | -59.95437 | 7818 ft | 272 kts | 85° |
| 2026-05-07 03:54 | -2.97424 | -59.93543 | 8467 ft | 275 kts | 85° |
| 2026-05-07 03:55 | -2.97240 | -59.91624 | 9094 ft | 279 kts | 85° |
| 2026-05-07 03:55 | -2.97051 | -59.89679 | 9745 ft | 282 kts | 84° |
| 2026-05-07 03:55 | -2.96858 | -59.87709 | 10285 ft | 289 kts | 84° |
| 2026-05-07 03:55 | -2.96653 | -59.85635 | 10426 ft | 310 kts | 84° |
| 2026-05-07 03:56 | -2.96434 | -59.83422 | 10582 ft | 329 kts | 84° |
| 2026-05-07 03:56 | -2.96201 | -59.81086 | 10756 ft | 345 kts | 84° |
| 2026-05-07 03:56 | -2.95959 | -59.78668 | 11176 ft | 352 kts | 84° |
| 2026-05-07 03:56 | -2.95714 | -59.76223 | 11731 ft | 354 kts | 84° |
| 2026-05-07 03:57 | -2.95468 | -59.73768 | 12286 ft | 357 kts | 84° |
| 2026-05-07 03:57 | -2.95218 | -59.71285 | 12820 ft | 360 kts | 84° |
| 2026-05-07 03:57 | -2.94967 | -59.68785 | 13341 ft | 363 kts | 84° |
| 2026-05-07 03:57 | -2.94713 | -59.66263 | 13875 ft | 366 kts | 84° |
| 2026-05-07 03:58 | -2.94458 | -59.63726 | 14335 ft | 368 kts | 84° |
| 2026-05-07 03:58 | -2.94201 | -59.61168 | 14801 ft | 371 kts | 84° |
| 2026-05-07 03:58 | -2.93941 | -59.58589 | 15259 ft | 374 kts | 84° |
| 2026-05-07 03:58 | -2.93681 | -59.55998 | 15711 ft | 376 kts | 84° |
| 2026-05-07 03:59 | -2.93417 | -59.53382 | 16159 ft | 379 kts | 84° |
| 2026-05-07 03:59 | -2.93152 | -59.50748 | 16600 ft | 382 kts | 84° |
| 2026-05-07 03:59 | -2.92885 | -59.48093 | 17037 ft | 385 kts | 85° |
| 2026-05-07 03:59 | -2.92616 | -59.45422 | 17471 ft | 387 kts | 85° |
| 2026-05-07 04:00 | -2.92345 | -59.42732 | 17902 ft | 390 kts | 85° |
| 2026-05-07 04:00 | -2.92075 | -59.40058 | 18300 ft | 393 kts | 85° |
| 2026-05-07 04:00 | -2.91800 | -59.37332 | 18656 ft | 395 kts | 85° |
| 2026-05-07 04:00 | -2.91524 | -59.34591 | 19023 ft | 397 kts | 85° |
| 2026-05-07 04:01 | -2.91246 | -59.31837 | 19383 ft | 399 kts | 85° |
| 2026-05-07 04:01 | -2.90966 | -59.29067 | 19732 ft | 401 kts | 85° |
| 2026-05-07 04:01 | -2.90685 | -59.26282 | 20081 ft | 403 kts | 85° |
| 2026-05-07 04:01 | -2.90403 | -59.23486 | 20422 ft | 405 kts | 85° |
| 2026-05-07 04:02 | -2.90119 | -59.20666 | 20750 ft | 408 kts | 85° |
| 2026-05-07 04:02 | -2.89833 | -59.17841 | 21079 ft | 410 kts | 85° |
| 2026-05-07 04:02 | -2.89546 | -59.14995 | 21406 ft | 412 kts | 85° |
| 2026-05-07 04:02 | -2.89257 | -59.12144 | 21721 ft | 414 kts | 85° |
| 2026-05-07 04:03 | -2.88967 | -59.09271 | 22021 ft | 416 kts | 85° |
| 2026-05-07 04:03 | -2.88675 | -59.06383 | 22315 ft | 418 kts | 85° |
| 2026-05-07 04:03 | -2.88382 | -59.03485 | 22629 ft | 420 kts | 85° |
| 2026-05-07 04:03 | -2.88088 | -59.00576 | 22930 ft | 421 kts | 85° |
| 2026-05-07 04:04 | -2.87793 | -58.97658 | 23221 ft | 423 kts | 85° |
| 2026-05-07 04:04 | -2.87495 | -58.94723 | 23516 ft | 425 kts | 85° |
| 2026-05-07 04:04 | -2.87197 | -58.91778 | 23748 ft | 426 kts | 85° |
| 2026-05-07 04:04 | -2.86898 | -58.88822 | 23989 ft | 428 kts | 85° |
| 2026-05-07 04:05 | -2.86598 | -58.85861 | 24220 ft | 429 kts | 85° |
| 2026-05-07 04:05 | -2.86297 | -58.82889 | 24455 ft | 430 kts | 85° |
| 2026-05-07 04:05 | -2.85995 | -58.79909 | 24697 ft | 431 kts | 85° |
| 2026-05-07 04:05 | -2.85692 | -58.76921 | 24924 ft | 432 kts | 85° |
| 2026-05-07 04:06 | -2.85388 | -58.73924 | 25160 ft | 434 kts | 85° |
| 2026-05-07 04:06 | -2.85083 | -58.70919 | 25374 ft | 435 kts | 85° |
| 2026-05-07 04:06 | -2.84777 | -58.67898 | 25595 ft | 437 kts | 85° |
| 2026-05-07 04:06 | -2.84470 | -58.64877 | 25813 ft | 438 kts | 85° |
| 2026-05-07 04:07 | -2.84162 | -58.61840 | 26024 ft | 439 kts | 85° |
| 2026-05-07 04:07 | -2.83853 | -58.58799 | 26225 ft | 441 kts | 84° |
| 2026-05-07 04:07 | -2.83542 | -58.55742 | 26440 ft | 442 kts | 85° |
| 2026-05-07 04:07 | -2.83231 | -58.52681 | 26650 ft | 443 kts | 84° |
| 2026-05-07 04:08 | -2.82919 | -58.49606 | 26853 ft | 444 kts | 84° |
| 2026-05-07 04:08 | -2.82607 | -58.46531 | 27051 ft | 446 kts | 84° |
| 2026-05-07 04:08 | -2.82292 | -58.43439 | 27240 ft | 447 kts | 84° |
| 2026-05-07 04:08 | -2.81978 | -58.40346 | 27439 ft | 448 kts | 84° |
| 2026-05-07 04:09 | -2.81661 | -58.37237 | 27622 ft | 449 kts | 84° |
| 2026-05-07 04:09 | -2.81349 | -58.34172 | 27796 ft | 451 kts | 84° |
| 2026-05-07 04:09 | -2.81027 | -58.31000 | 27977 ft | 452 kts | 84° |
| 2026-05-07 04:09 | -2.80712 | -58.27908 | 28158 ft | 453 kts | 84° |
| 2026-05-07 04:10 | -2.80388 | -58.24726 | 28341 ft | 454 kts | 84° |
| 2026-05-07 04:10 | -2.80067 | -58.21575 | 28509 ft | 456 kts | 84° |
| 2026-05-07 04:10 | -2.79746 | -58.18420 | 28666 ft | 457 kts | 84° |
| 2026-05-07 04:10 | -2.79427 | -58.15298 | 28887 ft | 457 kts | 84° |
| 2026-05-07 04:11 | -2.79106 | -58.12145 | 29183 ft | 455 kts | 84° |
| 2026-05-07 04:11 | -2.78785 | -58.09000 | 29483 ft | 454 kts | 84° |
| 2026-05-07 04:11 | -2.78466 | -58.05868 | 29721 ft | 453 kts | 84° |
| 2026-05-07 04:11 | -2.78145 | -58.02728 | 29936 ft | 453 kts | 84° |
| 2026-05-07 04:12 | -2.77825 | -57.99589 | 30151 ft | 453 kts | 84° |
| 2026-05-07 04:12 | -2.77505 | -57.96456 | 30363 ft | 453 kts | 84° |
| 2026-05-07 04:12 | -2.77186 | -57.93326 | 30539 ft | 453 kts | 84° |
| 2026-05-07 04:12 | -2.76866 | -57.90192 | 30723 ft | 453 kts | 84° |
| 2026-05-07 04:13 | -2.76545 | -57.87053 | 30910 ft | 453 kts | 84° |
| 2026-05-07 04:13 | -2.76225 | -57.83917 | 31114 ft | 453 kts | 84° |
| 2026-05-07 04:13 | -2.75904 | -57.80783 | 31309 ft | 453 kts | 84° |
| 2026-05-07 04:13 | -2.75584 | -57.77650 | 31506 ft | 453 kts | 84° |
| 2026-05-07 04:14 | -2.75263 | -57.74514 | 31685 ft | 453 kts | 84° |
| 2026-05-07 04:14 | -2.74943 | -57.71380 | 31871 ft | 454 kts | 84° |
| 2026-05-07 04:14 | -2.74621 | -57.68239 | 32068 ft | 453 kts | 84° |
| 2026-05-07 04:14 | -2.74300 | -57.65101 | 32262 ft | 453 kts | 84° |
| 2026-05-07 04:15 | -2.73979 | -57.61967 | 32441 ft | 454 kts | 84° |
| 2026-05-07 04:15 | -2.73657 | -57.58822 | 32616 ft | 454 kts | 84° |
| 2026-05-07 04:15 | -2.73336 | -57.55686 | 32819 ft | 453 kts | 84° |
| 2026-05-07 04:15 | -2.73015 | -57.52549 | 32987 ft | 453 kts | 84° |
| 2026-05-07 04:16 | -2.72693 | -57.49405 | 32971 ft | 456 kts | 84° |
| 2026-05-07 04:16 | -2.72047 | -57.43106 | 32978 ft | 454 kts | 84° |
| 2026-05-07 04:17 | -2.71404 | -57.36836 | 32986 ft | 452 kts | 84° |
| 2026-05-07 04:17 | -2.70767 | -57.30636 | 32989 ft | 450 kts | 84° |
| 2026-05-07 04:18 | -2.70124 | -57.24370 | 32982 ft | 449 kts | 84° |
| 2026-05-07 04:18 | -2.69490 | -57.18198 | 32983 ft | 449 kts | 84° |
| 2026-05-07 04:19 | -2.68852 | -57.11984 | 32984 ft | 449 kts | 84° |
| 2026-05-07 04:19 | -2.68211 | -57.05763 | 32986 ft | 450 kts | 84° |
| 2026-05-07 04:20 | -2.67552 | -56.99572 | 32973 ft | 444 kts | 84° |
| 2026-05-07 04:20 | -2.66893 | -56.93466 | 32982 ft | 441 kts | 84° |
| 2026-05-07 04:21 | -2.66245 | -56.87458 | 32019 ft | 439 kts | 84° |
| 2026-05-07 04:21 | -2.65916 | -56.84396 | 31312 ft | 444 kts | 84° |
| 2026-05-07 04:21 | -2.65588 | -56.81348 | 30939 ft | 439 kts | 84° |
| 2026-05-07 04:21 | -2.65263 | -56.78314 | 30470 ft | 437 kts | 84° |
| 2026-05-07 04:22 | -2.64939 | -56.75299 | 30042 ft | 434 kts | 84° |
| 2026-05-07 04:22 | -2.64618 | -56.72308 | 29531 ft | 432 kts | 84° |
| 2026-05-07 04:22 | -2.64297 | -56.69327 | 29052 ft | 429 kts | 84° |
| 2026-05-07 04:22 | -2.63980 | -56.66376 | 28585 ft | 425 kts | 84° |
| 2026-05-07 04:23 | -2.63666 | -56.63449 | 28141 ft | 422 kts | 84° |
| 2026-05-07 04:23 | -2.63354 | -56.60547 | 27700 ft | 418 kts | 84° |
| 2026-05-07 04:23 | -2.63044 | -56.57662 | 27261 ft | 415 kts | 84° |
| 2026-05-07 04:23 | -2.62736 | -56.54800 | 26830 ft | 412 kts | 84° |
| 2026-05-07 04:24 | -2.62430 | -56.51959 | 26394 ft | 410 kts | 84° |
| 2026-05-07 04:24 | -2.62126 | -56.49130 | 25965 ft | 408 kts | 84° |
| 2026-05-07 04:24 | -2.61824 | -56.46322 | 25539 ft | 405 kts | 84° |
| 2026-05-07 04:24 | -2.61527 | -56.43564 | 25103 ft | 404 kts | 84° |
| 2026-05-07 04:25 | -2.61222 | -56.40736 | 24666 ft | 402 kts | 84° |
| 2026-05-07 04:25 | -2.60923 | -56.37954 | 24232 ft | 401 kts | 85° |
| 2026-05-07 04:25 | -2.60630 | -56.35228 | 23818 ft | 400 kts | 85° |
| 2026-05-07 04:25 | -2.60328 | -56.32430 | 23338 ft | 399 kts | 85° |
| 2026-05-07 04:26 | -2.60032 | -56.29682 | 22880 ft | 396 kts | 85° |
| 2026-05-07 04:26 | -2.59737 | -56.26948 | 22439 ft | 393 kts | 85° |
| 2026-05-07 04:26 | -2.59449 | -56.24274 | 22010 ft | 391 kts | 85° |
| 2026-05-07 04:26 | -2.59159 | -56.21583 | 21590 ft | 388 kts | 85° |
| 2026-05-07 04:27 | -2.58867 | -56.18877 | 21182 ft | 385 kts | 84° |
| 2026-05-07 04:27 | -2.58585 | -56.16265 | 20776 ft | 382 kts | 84° |
| 2026-05-07 04:27 | -2.58302 | -56.13633 | 20371 ft | 380 kts | 84° |
| 2026-05-07 04:27 | -2.58020 | -56.11018 | 19970 ft | 377 kts | 84° |
| 2026-05-07 04:28 | -2.57739 | -56.08414 | 19563 ft | 375 kts | 84° |
| 2026-05-07 04:28 | -2.57460 | -56.05830 | 19170 ft | 373 kts | 84° |
| 2026-05-07 04:28 | -2.57182 | -56.03258 | 18761 ft | 371 kts | 84° |
| 2026-05-07 04:28 | -2.56906 | -56.00700 | 18360 ft | 370 kts | 84° |
| 2026-05-07 04:29 | -2.56630 | -55.98144 | 17910 ft | 368 kts | 84° |
| 2026-05-07 04:29 | -2.56356 | -55.95605 | 17488 ft | 366 kts | 84° |
| 2026-05-07 04:29 | -2.56084 | -55.93086 | 17077 ft | 363 kts | 84° |
| 2026-05-07 04:29 | -2.55813 | -55.90585 | 16678 ft | 360 kts | 84° |
| 2026-05-07 04:30 | -2.55545 | -55.88102 | 16285 ft | 358 kts | 84° |
| 2026-05-07 04:30 | -2.55279 | -55.85637 | 15897 ft | 355 kts | 84° |
| 2026-05-07 04:30 | -2.55014 | -55.83192 | 15511 ft | 353 kts | 84° |
| 2026-05-07 04:30 | -2.54836 | -55.81544 | 15249 ft | 352 kts | 84° |
| 2026-05-07 04:31 | -2.54574 | -55.79123 | 14874 ft | 349 kts | 84° |
| 2026-05-07 04:31 | -2.54314 | -55.76714 | 14494 ft | 348 kts | 84° |
| 2026-05-07 04:31 | -2.54055 | -55.74318 | 14113 ft | 346 kts | 84° |
| 2026-05-07 04:31 | -2.53796 | -55.71928 | 13728 ft | 344 kts | 84° |
| 2026-05-07 04:32 | -2.53539 | -55.69551 | 13299 ft | 343 kts | 84° |
| 2026-05-07 04:32 | -2.53283 | -55.67190 | 12903 ft | 341 kts | 84° |
| 2026-05-07 04:32 | -2.53029 | -55.64843 | 12519 ft | 338 kts | 84° |
| 2026-05-07 04:32 | -2.52777 | -55.62512 | 12140 ft | 336 kts | 84° |
| 2026-05-07 04:33 | -2.52526 | -55.60197 | 11767 ft | 333 kts | 84° |
| 2026-05-07 04:33 | -2.52283 | -55.57955 | 11389 ft | 324 kts | 84° |
| 2026-05-07 04:33 | -2.52041 | -55.55720 | 11024 ft | 315 kts | 84° |
| 2026-05-07 04:33 | -2.51811 | -55.53599 | 10686 ft | 306 kts | 84° |
| 2026-05-07 04:34 | -2.51585 | -55.51512 | 10423 ft | 296 kts | 84° |
| 2026-05-07 04:34 | -2.51369 | -55.49524 | 10298 ft | 281 kts | 84° |
| 2026-05-07 04:34 | -2.51164 | -55.47625 | 10171 ft | 268 kts | 84° |
| 2026-05-07 04:34 | -2.50967 | -55.45808 | 10067 ft | 260 kts | 84° |
| 2026-05-07 04:35 | -2.50773 | -55.44020 | 9929 ft | 259 kts | 84° |
| 2026-05-07 04:35 | -2.50576 | -55.42205 | 9646 ft | 265 kts | 84° |
| 2026-05-07 04:35 | -2.50376 | -55.40359 | 9376 ft | 270 kts | 84° |
| 2026-05-07 04:35 | -2.50173 | -55.38488 | 9082 ft | 270 kts | 84° |
| 2026-05-07 04:36 | -2.49971 | -55.36622 | 8796 ft | 269 kts | 84° |
| 2026-05-07 04:36 | -2.49769 | -55.34760 | 8508 ft | 268 kts | 84° |
| 2026-05-07 04:36 | -2.49568 | -55.32908 | 8224 ft | 267 kts | 84° |
| 2026-05-07 04:36 | -2.49368 | -55.31067 | 7951 ft | 266 kts | 84° |
| 2026-05-07 04:37 | -2.49168 | -55.29228 | 7684 ft | 265 kts | 84° |
| 2026-05-07 04:37 | -2.48970 | -55.27399 | 7393 ft | 265 kts | 84° |
| 2026-05-07 04:37 | -2.48771 | -55.25568 | 7122 ft | 264 kts | 84° |
| 2026-05-07 04:37 | -2.48574 | -55.23748 | 6844 ft | 263 kts | 84° |
| 2026-05-07 04:38 | -2.48377 | -55.21936 | 6634 ft | 260 kts | 84° |
| 2026-05-07 04:38 | -2.48183 | -55.20154 | 6589 ft | 255 kts | 84° |
| 2026-05-07 04:38 | -2.47996 | -55.18433 | 6565 ft | 243 kts | 84° |
| 2026-05-07 04:38 | -2.47818 | -55.16792 | 6554 ft | 231 kts | 84° |
| 2026-05-07 04:39 | -2.47649 | -55.15236 | 6549 ft | 220 kts | 84° |
| 2026-05-07 04:39 | -2.47486 | -55.13732 | 6566 ft | 217 kts | 84° |
| 2026-05-07 04:39 | -2.47320 | -55.12209 | 6584 ft | 224 kts | 84° |
| 2026-05-07 04:39 | -2.47149 | -55.10632 | 6404 ft | 233 kts | 84° |
| 2026-05-07 04:40 | -2.46971 | -55.08988 | 5507 ft | 255 kts | 84° |
| 2026-05-07 04:40 | -2.46777 | -55.07209 | 4687 ft | 260 kts | 84° |
| 2026-05-07 04:40 | -2.46543 | -55.05430 | 3848 ft | 264 kts | 81° |
| 2026-05-07 04:40 | -2.46246 | -55.03658 | 3691 ft | 241 kts | 80° |
| 2026-05-07 04:41 | -2.45984 | -55.02110 | 3556 ft | 218 kts | 80° |
| 2026-05-07 04:41 | -2.45747 | -55.00692 | 3409 ft | 196 kts | 80° |
| 2026-05-07 04:41 | -2.45536 | -54.99418 | 3384 ft | 177 kts | 80° |
| 2026-05-07 04:41 | -2.45314 | -54.98150 | 3485 ft | 197 kts | 79° |
| 2026-05-07 04:42 | -2.45082 | -54.96786 | 3369 ft | 195 kts | 80° |
| 2026-05-07 04:42 | -2.44873 | -54.95513 | 3160 ft | 176 kts | 80° |
| 2026-05-07 04:42 | -2.44689 | -54.94375 | 2926 ft | 157 kts | 80° |
| 2026-05-07 04:42 | -2.44521 | -54.93342 | 2755 ft | 151 kts | 80° |
| 2026-05-07 04:43 | -2.44354 | -54.92314 | 2558 ft | 148 kts | 80° |
| 2026-05-07 04:43 | -2.44191 | -54.91309 | 2356 ft | 146 kts | 80° |
| 2026-05-07 04:43 | -2.44027 | -54.90303 | 2171 ft | 147 kts | 80° |
| 2026-05-07 04:43 | -2.43864 | -54.89295 | 1973 ft | 146 kts | 80° |
| 2026-05-07 04:44 | -2.43701 | -54.88294 | 1782 ft | 146 kts | 80° |
| 2026-05-07 04:44 | -2.43538 | -54.87289 | 1577 ft | 147 kts | 80° |
| 2026-05-07 04:44 | -2.43376 | -54.86288 | 1380 ft | 146 kts | 80° |
| 2026-05-07 04:44 | -2.43213 | -54.85287 | 1194 ft | 146 kts | 80° |
| 2026-05-07 04:45 | -2.43050 | -54.84282 | 1006 ft | 147 kts | 81° |
| 2026-05-07 04:45 | -2.42886 | -54.83274 | 814 ft | 147 kts | 82° |
| 2026-05-07 04:45 | -2.42723 | -54.82267 | 624 ft | 146 kts | 82° |
| 2026-05-07 04:45 | -2.42560 | -54.81258 | 413 ft | 147 kts | 83° |
| 2026-05-07 04:46 | -2.42398 | -54.80251 | 237 ft | 145 kts | 82° |
| 2026-05-07 04:46 | -2.42249 | -54.79352 | 204 ft | 109 kts | 80° |
| 2026-05-07 04:46 | -2.42172 | -54.78873 | 213 ft | 14 kts | 81° |
| 2026-05-07 04:46 | -2.42169 | -54.78780 | 207 ft | 13 kts | 107° |
| 2026-05-07 04:47 | -2.42227 | -54.78712 | 205 ft | 13 kts | 138° |
| 2026-05-07 04:47 | -2.42293 | -54.78655 | 205 ft | 12 kts | 140° |
| 2026-05-07 04:47 | -2.42348 | -54.78591 | 212 ft | 11 kts | 104° |
| 2026-05-07 04:47 | -2.42364 | -54.78551 | 210 ft | 6 kts | 133° |
| 2026-05-07 04:48 | -2.42381 | -54.78538 | 205 ft | 0 kts | 143° |